createdAt,value
2023-05-24T00:01:02.945Z,100157.28
2023-05-24T00:03:35.275Z,100155.47
2023-05-24T00:06:02.325Z,100161.75
2023-05-24T00:08:29.250Z,100157.34
2023-05-24T00:10:56.201Z,100152.50
2023-05-24T00:13:23.112Z,100147.12
2023-05-24T00:15:50.067Z,100146.88
2023-05-24T00:18:19.608Z,100141.66
2023-05-24T00:20:46.881Z,100148.06
2023-05-24T00:23:14.148Z,100146.75
2023-05-24T00:25:41.033Z,100142.84
2023-05-24T00:28:07.927Z,100139.84
2023-05-24T00:30:34.800Z,100138.13
2023-05-24T00:33:01.743Z,100137.78
2023-05-24T00:35:28.643Z,100139.38
2023-05-24T00:37:55.568Z,100139.44
2023-05-24T00:40:22.455Z,100149.97
2023-05-24T00:42:49.523Z,100149.78
2023-05-24T00:45:16.458Z,100148.97
2023-05-24T00:47:44.110Z,100153.81
2023-05-24T00:50:17.406Z,100149.66
2023-05-24T00:52:45.273Z,100146.56
2023-05-24T00:55:12.823Z,100152.22
2023-05-24T00:57:39.908Z,100157.50
2023-05-24T01:00:08.299Z,100152.69
2023-05-24T01:02:35.619Z,100153.41
2023-05-24T01:05:02.996Z,100163.19
2023-05-24T01:07:42.040Z,100164.91
2023-05-24T01:10:32.536Z,100163.72
2023-05-24T01:13:23.825Z,100163.88
2023-05-24T01:16:16.062Z,100163.69
2023-05-24T01:18:52.877Z,100169.22
2023-05-24T01:22:02.038Z,100175.53
2023-05-24T01:25:13.356Z,100176.56
2023-05-24T01:27:40.894Z,100168.03
2023-05-24T01:30:08.401Z,100165.87
2023-05-24T01:32:35.646Z,100164.66
2023-05-24T01:35:02.518Z,100167.44
2023-05-24T01:37:29.382Z,100172.13
2023-05-24T01:39:56.537Z,100167.03
2023-05-24T01:42:35.190Z,100163.69
2023-05-24T01:45:08.073Z,100159.16
2023-05-24T01:48:18.975Z,100160.41
2023-05-24T01:50:52.840Z,100155.66
2023-05-24T01:53:23.395Z,100166.37
2023-05-24T01:55:53.647Z,100154.81
2023-05-24T01:58:23.234Z,100157.50
2023-05-24T02:00:50.792Z,100167.84
2023-05-24T02:03:17.959Z,100165.50
2023-05-24T02:05:46.402Z,100175.56
2023-05-24T02:08:13.584Z,100180.28
2023-05-24T02:10:41.512Z,100171.41
2023-05-24T02:13:09.198Z,100167.94
2023-05-24T02:15:36.693Z,100176.44
2023-05-24T02:18:04.381Z,100175.41
2023-05-24T02:20:31.768Z,100187.16
2023-05-24T02:22:58.812Z,100179.81
2023-05-24T02:25:25.837Z,100187.38
2023-05-24T02:27:52.836Z,100194.19
2023-05-24T02:30:19.857Z,100191.09
2023-05-24T02:32:47.001Z,100194.97
2023-05-24T02:35:13.922Z,100202.81
2023-05-24T02:37:40.968Z,100196.41
2023-05-24T02:40:08.432Z,100197.03
2023-05-24T02:42:35.542Z,100199.72
2023-05-24T02:45:02.841Z,100203.81
2023-05-24T02:47:29.906Z,100188.47
2023-05-24T02:49:57.197Z,100185.81
2023-05-24T02:52:24.140Z,100191.56
2023-05-24T02:54:51.035Z,100194.97
2023-05-24T02:57:18.528Z,100191.94
2023-05-24T02:59:45.459Z,100193.47
2023-05-24T03:02:15.166Z,100184.25
2023-05-24T03:04:41.931Z,100200.59
2023-05-24T03:07:08.829Z,100187.69
2023-05-24T03:09:35.908Z,100196.31
2023-05-24T03:12:02.830Z,100196.87
2023-05-24T03:14:29.706Z,100200.53
2023-05-24T03:16:56.661Z,100205.09
2023-05-24T03:19:23.633Z,100203.03
2023-05-24T03:21:50.639Z,100197.81
2023-05-24T03:24:17.521Z,100200.75
2023-05-24T03:26:44.530Z,100204.41
2023-05-24T03:29:11.574Z,100197.81
2023-05-24T03:31:38.471Z,100205.28
2023-05-24T03:34:05.370Z,100216.09
2023-05-24T03:36:33.015Z,100215.59
2023-05-24T03:38:59.957Z,100222.31
2023-05-24T03:41:27.795Z,100226.97
2023-05-24T03:43:54.786Z,100227.28
2023-05-24T03:46:21.718Z,100231.50
2023-05-24T03:48:49.753Z,100227.78
2023-05-24T03:51:17.014Z,100231.72
2023-05-24T03:53:44.271Z,100225.97
2023-05-24T03:56:11.260Z,100230.19
2023-05-24T03:58:38.888Z,100226.84
2023-05-24T04:01:05.916Z,100219.97
2023-05-24T04:03:34.523Z,100223.44
2023-05-24T04:06:01.712Z,100234.56
2023-05-24T04:08:28.571Z,100234.66
2023-05-24T04:10:55.905Z,100234.69
2023-05-24T04:13:22.815Z,100241.00
2023-05-24T04:15:49.854Z,100244.34
2023-05-24T04:18:16.875Z,100237.91
2023-05-24T04:20:44.060Z,100240.06
2023-05-24T04:23:11.153Z,100252.59
2023-05-24T04:25:38.059Z,100254.91
2023-05-24T04:28:05.057Z,100266.78
2023-05-24T04:30:32.442Z,100269.91
2023-05-24T04:32:59.450Z,100267.59
2023-05-24T04:35:26.447Z,100268.31
2023-05-24T04:37:53.460Z,100264.25
2023-05-24T04:40:23.339Z,100261.66
2023-05-24T04:42:50.973Z,100273.44
2023-05-24T04:45:17.796Z,100270.91
2023-05-24T04:47:44.792Z,100266.12
2023-05-24T04:50:11.713Z,100268.44
2023-05-24T04:52:38.780Z,100268.16
2023-05-24T04:55:06.223Z,100271.91
2023-05-24T04:57:33.072Z,100273.41
2023-05-24T05:00:00.095Z,100282.41
2023-05-24T05:02:27.365Z,100286.22
2023-05-24T05:04:54.281Z,100275.75
2023-05-24T05:07:21.747Z,100283.06
2023-05-24T05:09:48.711Z,100292.28
2023-05-24T05:12:15.714Z,100295.41
2023-05-24T05:14:42.718Z,100289.69
2023-05-24T05:17:09.647Z,100288.97
2023-05-24T05:19:36.619Z,100296.84
2023-05-24T05:22:03.680Z,100295.78
2023-05-24T05:24:30.709Z,100302.75
2023-05-24T05:26:57.678Z,100293.81
2023-05-24T05:29:24.752Z,100306.81
2023-05-24T05:31:51.758Z,100301.53
2023-05-24T05:34:19.751Z,100300.88
2023-05-24T05:36:46.893Z,100297.34
2023-05-24T05:39:14.302Z,100302.13
2023-05-24T05:41:46.388Z,100300.31
2023-05-24T05:44:14.126Z,100305.75
2023-05-24T05:46:44.021Z,100307.19
2023-05-24T05:49:11.183Z,100295.88
2023-05-24T05:51:38.994Z,100307.47
2023-05-24T05:54:06.914Z,100311.78
2023-05-24T05:56:33.883Z,100317.34
2023-05-24T05:59:00.936Z,100312.16
2023-05-24T06:01:27.798Z,100318.41
2023-05-24T06:03:54.813Z,100312.53
2023-05-24T06:06:21.777Z,100307.28
2023-05-24T06:08:48.702Z,100310.16
2023-05-24T06:11:15.657Z,100311.25
2023-05-24T06:13:42.606Z,100313.47
2023-05-24T06:16:10.104Z,100315.41
2023-05-24T06:18:37.273Z,100310.25
2023-05-24T06:21:04.467Z,100307.63
2023-05-24T06:23:32.417Z,100314.75
2023-05-24T06:25:59.328Z,100317.12
2023-05-24T06:28:26.327Z,100306.97
2023-05-24T06:30:53.290Z,100300.09
2023-05-24T06:33:20.303Z,100307.31
2023-05-24T06:35:47.245Z,100294.34
2023-05-24T06:38:14.178Z,100294.66
2023-05-24T06:40:41.970Z,100298.19
2023-05-24T06:43:09.029Z,100311.81
2023-05-24T06:45:35.994Z,100311.78
2023-05-24T06:48:03.254Z,100307.28
2023-05-24T06:50:30.389Z,100310.84
2023-05-24T06:52:57.283Z,100313.50
2023-05-24T06:57:50.970Z,100312.50
2023-05-24T07:00:18.974Z,100329.78
2023-05-24T07:02:45.892Z,100319.38
2023-05-24T07:05:12.877Z,100334.22
2023-05-24T07:07:40.952Z,100327.22
2023-05-24T07:10:09.231Z,100327.72
2023-05-24T07:12:36.218Z,100331.38
2023-05-24T07:15:07.303Z,100339.16
2023-05-24T07:17:34.312Z,100335.19
2023-05-24T07:20:02.166Z,100325.34
2023-05-24T07:22:30.274Z,100337.81
2023-05-24T07:24:57.266Z,100323.41
2023-05-24T07:27:24.232Z,100328.53
2023-05-24T07:29:51.271Z,100326.47
2023-05-24T07:32:18.547Z,100317.12
2023-05-24T07:34:45.520Z,100322.63
2023-05-24T07:37:12.425Z,100316.69
2023-05-24T07:39:39.608Z,100314.63
2023-05-24T07:42:07.581Z,100317.91
2023-05-24T07:44:34.497Z,100322.81
2023-05-24T07:47:02.746Z,100313.62
2023-05-24T07:49:29.708Z,100319.31
2023-05-24T07:51:58.581Z,100314.47
2023-05-24T07:54:25.929Z,100310.59
2023-05-24T07:56:53.043Z,100311.72
2023-05-24T07:59:19.958Z,100324.94
2023-05-24T08:01:48.039Z,100319.50
2023-05-24T08:04:16.323Z,100321.59
2023-05-24T08:06:43.334Z,100326.19
2023-05-24T08:09:10.587Z,100330.81
2023-05-24T08:11:37.645Z,100319.38
2023-05-24T08:14:04.505Z,100328.91
2023-05-24T08:16:32.155Z,100324.38
2023-05-24T08:18:59.087Z,100333.06
2023-05-24T08:21:26.437Z,100337.25
2023-05-24T08:23:53.362Z,100338.84
2023-05-24T08:26:21.205Z,100342.72
2023-05-24T08:28:48.411Z,100342.72
2023-05-24T08:31:15.465Z,100344.47
2023-05-24T08:33:43.235Z,100338.31
2023-05-24T08:36:10.498Z,100341.53
2023-05-24T08:38:37.414Z,100342.06
2023-05-24T08:41:07.446Z,100342.91
2023-05-24T08:43:35.601Z,100345.47
2023-05-24T08:46:04.108Z,100336.50
2023-05-24T08:48:31.524Z,100335.06
2023-05-24T08:50:59.617Z,100331.66
2023-05-24T08:53:27.662Z,100336.63
2023-05-24T08:55:56.351Z,100338.25
2023-05-24T08:58:23.596Z,100339.16
2023-05-24T09:00:50.674Z,100334.59
2023-05-24T09:03:18.874Z,100333.91
2023-05-24T09:05:46.381Z,100347.69
2023-05-24T09:08:18.248Z,100346.09
2023-05-24T09:13:20.005Z,100342.41
2023-05-24T09:15:47.239Z,100351.28
2023-05-24T09:18:14.202Z,100349.88
2023-05-24T09:20:41.573Z,100359.69
2023-05-24T09:23:08.942Z,100360.44
2023-05-24T09:25:36.124Z,100356.13
2023-05-24T09:28:08.681Z,100366.81
2023-05-24T09:30:36.764Z,100368.47
2023-05-24T09:33:05.782Z,100358.22
2023-05-24T09:35:33.041Z,100351.84
2023-05-24T09:38:00.703Z,100352.44
2023-05-24T09:40:28.867Z,100347.75
2023-05-24T09:43:10.161Z,100357.34
2023-05-24T09:45:46.902Z,100356.31
2023-05-24T09:48:15.592Z,100361.88
2023-05-24T09:50:45.933Z,100358.81
2023-05-24T09:53:13.080Z,100356.38
2023-05-24T09:55:40.063Z,100361.47
2023-05-24T09:58:11.786Z,100360.59
2023-05-24T10:00:41.633Z,100362.16
2023-05-24T10:03:15.386Z,100356.38
2023-05-24T10:05:45.517Z,100360.59
2023-05-24T10:08:14.618Z,100361.28
2023-05-24T10:10:42.690Z,100363.97
2023-05-24T10:13:10.718Z,100367.34
2023-05-24T10:15:38.450Z,100364.62
2023-05-24T10:18:10.671Z,100363.00
2023-05-24T10:20:42.113Z,100360.56
2023-05-24T10:23:10.945Z,100368.75
2023-05-24T10:25:42.236Z,100360.81
2023-05-24T10:28:12.953Z,100362.91
2023-05-24T10:31:02.257Z,100356.75
2023-05-24T10:33:31.568Z,100356.28
2023-05-24T10:35:58.973Z,100361.12
2023-05-24T10:38:26.053Z,100363.03
2023-05-24T10:40:53.387Z,100358.69
2023-05-24T10:43:22.337Z,100358.19
2023-05-24T10:45:50.906Z,100361.06
2023-05-24T10:48:17.916Z,100352.94
2023-05-24T10:50:45.296Z,100358.34
2023-05-24T10:53:16.144Z,100353.06
2023-05-24T10:55:52.783Z,100352.66
2023-05-24T10:58:20.640Z,100364.00
2023-05-24T11:00:49.303Z,100358.34
2023-05-24T11:03:23.932Z,100350.81
2023-05-24T11:05:53.603Z,100364.69
2023-05-24T11:08:32.148Z,100354.47
2023-05-24T11:13:40.931Z,100357.66
2023-05-24T11:16:08.257Z,100355.25
2023-05-24T11:18:38.817Z,100358.22
2023-05-24T11:21:06.821Z,100351.44
2023-05-24T11:23:35.981Z,100346.38
2023-05-24T11:26:04.387Z,100345.34
2023-05-24T11:28:32.873Z,100332.97
2023-05-24T11:31:09.720Z,100337.81
2023-05-24T11:33:41.818Z,100346.91
2023-05-24T11:36:08.828Z,100328.09
2023-05-24T11:38:36.891Z,100337.19
2023-05-24T11:41:03.974Z,100328.69
2023-05-24T11:43:31.752Z,100333.28
2023-05-24T11:45:58.708Z,100333.16
2023-05-24T11:48:26.296Z,100330.53
2023-05-24T11:50:53.432Z,100330.59
2023-05-24T11:53:25.098Z,100330.34
2023-05-24T11:55:54.626Z,100332.37
2023-05-24T11:58:29.770Z,100317.63
2023-05-24T12:00:56.654Z,100319.47
2023-05-24T12:03:23.774Z,100323.22
2023-05-24T12:05:51.530Z,100323.34
2023-05-24T12:08:18.694Z,100313.72
2023-05-24T12:10:45.903Z,100309.53
2023-05-24T12:13:24.415Z,100302.31
2023-05-24T12:15:56.610Z,100297.78
2023-05-24T12:18:26.671Z,100313.38
2023-05-24T12:20:54.004Z,100310.94
2023-05-24T12:23:24.401Z,100306.28
2023-05-24T12:25:51.597Z,100298.69
2023-05-24T12:28:25.093Z,100312.06
2023-05-24T12:30:52.933Z,100308.72
2023-05-24T12:33:21.265Z,100301.63
2023-05-24T12:35:50.099Z,100304.03
2023-05-24T12:38:25.584Z,100303.88
2023-05-24T12:41:07.944Z,100288.53
2023-05-24T12:43:39.750Z,100291.09
2023-05-24T12:46:07.159Z,100289.97
2023-05-24T12:48:34.258Z,100287.00
2023-05-24T12:51:02.476Z,100277.22
2023-05-24T12:53:29.631Z,100292.25
2023-05-24T12:55:56.701Z,100284.75
2023-05-24T12:58:23.935Z,100285.66
2023-05-24T13:00:52.148Z,100283.22
2023-05-24T13:03:19.093Z,100281.97
2023-05-24T13:05:47.488Z,100274.47
2023-05-24T13:08:14.829Z,100272.03
2023-05-24T13:10:41.817Z,100273.31
2023-05-24T13:13:09.058Z,100278.41
2023-05-24T13:15:36.449Z,100271.53
2023-05-24T13:18:03.379Z,100267.97
2023-05-24T13:20:30.370Z,100268.06
2023-05-24T13:22:57.277Z,100270.19
2023-05-24T13:25:24.196Z,100268.06
2023-05-24T13:27:51.202Z,100263.00
2023-05-24T13:30:18.210Z,100265.00
2023-05-24T13:32:45.273Z,100278.13
2023-05-24T13:35:12.193Z,100274.81
2023-05-24T13:37:39.250Z,100264.37
2023-05-24T13:40:07.008Z,100268.34
2023-05-24T13:42:33.972Z,100268.31
2023-05-24T13:45:01.270Z,100267.63
2023-05-24T13:47:39.233Z,100259.00
2023-05-24T13:50:07.611Z,100261.88
2023-05-24T13:52:35.104Z,100249.41
2023-05-24T13:55:05.098Z,100240.87
2023-05-24T13:57:49.842Z,100246.34
2023-05-24T14:00:19.203Z,100254.84
2023-05-24T14:02:46.267Z,100239.88
2023-05-24T14:05:26.692Z,100242.81
2023-05-24T14:07:55.184Z,100246.84
2023-05-24T14:10:22.207Z,100237.94
2023-05-24T14:12:59.350Z,100238.88
2023-05-24T14:15:31.136Z,100237.16
2023-05-24T14:17:58.949Z,100240.84
2023-05-24T14:20:25.928Z,100245.88
2023-05-24T14:22:52.877Z,100241.00
2023-05-24T14:25:20.008Z,100238.88
2023-05-24T14:27:47.097Z,100237.78
2023-05-24T14:30:14.834Z,100241.97
2023-05-24T14:32:41.734Z,100243.91
2023-05-24T14:35:08.867Z,100229.72
2023-05-24T14:37:35.868Z,100235.66
2023-05-24T14:40:02.943Z,100234.34
2023-05-24T14:42:29.907Z,100243.31
2023-05-24T14:44:56.848Z,100247.22
2023-05-24T14:47:23.750Z,100251.88
2023-05-24T14:49:51.007Z,100252.53
2023-05-24T14:52:17.897Z,100245.13
2023-05-24T14:54:44.735Z,100253.47
2023-05-24T14:57:12.347Z,100253.38
2023-05-24T14:59:39.219Z,100251.53
2023-05-24T15:02:06.688Z,100246.94
2023-05-24T15:04:33.834Z,100258.47
2023-05-24T15:07:00.939Z,100267.09
2023-05-24T15:09:27.861Z,100261.19
2023-05-24T15:11:54.720Z,100268.06
2023-05-24T15:14:22.089Z,100270.97
2023-05-24T15:16:49.792Z,100268.63
2023-05-24T15:19:16.751Z,100271.06
2023-05-24T15:21:43.622Z,100272.75
2023-05-24T15:24:10.544Z,100275.38
2023-05-24T15:26:37.710Z,100279.12
2023-05-24T15:29:04.887Z,100270.66
2023-05-24T15:31:31.819Z,100279.69
2023-05-24T15:33:58.744Z,100263.38
2023-05-24T15:36:25.719Z,100276.78
2023-05-24T15:38:52.573Z,100284.41
2023-05-24T15:41:19.475Z,100283.69
2023-05-24T15:43:46.610Z,100284.13
2023-05-24T15:46:13.548Z,100277.97
2023-05-24T15:48:40.504Z,100274.00
2023-05-24T15:53:37.820Z,100283.88
2023-05-24T15:56:04.958Z,100278.81
2023-05-24T15:58:31.819Z,100279.47
2023-05-24T16:00:58.689Z,100284.50
2023-05-24T16:03:25.677Z,100276.97
2023-05-24T16:05:52.650Z,100276.56
2023-05-24T16:08:19.891Z,100279.94
2023-05-24T16:10:46.877Z,100281.94
2023-05-24T16:13:14.123Z,100273.84
2023-05-24T16:15:42.694Z,100286.09
2023-05-24T16:18:09.791Z,100284.47
2023-05-24T16:20:37.004Z,100286.19
2023-05-24T16:23:04.059Z,100293.75
2023-05-24T16:25:30.975Z,100286.88
2023-05-24T16:27:57.939Z,100298.34
2023-05-24T16:30:24.848Z,100291.22
2023-05-24T16:32:51.801Z,100293.59
2023-05-24T16:35:18.824Z,100304.25
2023-05-24T16:37:45.751Z,100297.22
2023-05-24T16:40:12.874Z,100303.88
2023-05-24T16:42:39.780Z,100305.47
2023-05-24T16:45:07.038Z,100305.19
2023-05-24T16:47:34.014Z,100305.91
2023-05-24T16:50:00.943Z,100311.72
2023-05-24T16:52:27.879Z,100312.47
2023-05-24T16:54:54.745Z,100313.91
2023-05-24T16:57:21.603Z,100325.53
2023-05-24T16:59:50.636Z,100325.56
2023-05-24T17:02:17.722Z,100315.63
2023-05-24T17:04:44.568Z,100318.44
2023-05-24T17:07:11.476Z,100326.09
2023-05-24T17:09:38.377Z,100328.25
2023-05-24T17:12:05.566Z,100331.00
2023-05-24T17:14:32.515Z,100334.63
2023-05-24T17:16:59.390Z,100339.75
2023-05-24T17:19:26.393Z,100339.88
2023-05-24T17:21:53.287Z,100338.59
2023-05-24T17:24:21.884Z,100342.91
2023-05-24T17:26:48.723Z,100350.78
2023-05-24T17:29:15.836Z,100350.38
2023-05-24T17:31:42.698Z,100354.56
2023-05-24T17:34:09.613Z,100362.28
2023-05-24T17:36:37.756Z,100361.41
2023-05-24T17:39:07.428Z,100360.38
2023-05-24T17:41:34.432Z,100361.63
2023-05-24T17:44:01.315Z,100373.09
2023-05-24T17:46:28.308Z,100366.78
2023-05-24T17:48:55.270Z,100367.56
2023-05-24T17:51:24.676Z,100373.00
2023-05-24T17:53:51.835Z,100380.47
2023-05-24T17:56:18.804Z,100394.41
2023-05-24T17:58:47.566Z,100394.94
2023-05-24T18:01:15.481Z,100395.81
2023-05-24T18:03:42.917Z,100402.25
2023-05-24T18:06:10.098Z,100404.50
2023-05-24T18:08:42.599Z,100410.34
2023-05-24T18:11:11.453Z,100410.84
2023-05-24T18:13:39.739Z,100409.66
2023-05-24T18:16:07.435Z,100407.81
2023-05-24T18:18:34.780Z,100401.34
2023-05-24T18:21:01.756Z,100410.78
2023-05-24T18:23:28.729Z,100401.09
2023-05-24T18:26:01.406Z,100410.25
2023-05-24T18:28:30.205Z,100406.94
2023-05-24T18:30:57.219Z,100407.00
2023-05-24T18:33:24.524Z,100405.97
2023-05-24T18:35:51.646Z,100406.84
2023-05-24T18:38:18.693Z,100401.25
2023-05-24T18:40:45.955Z,100406.72
2023-05-24T18:43:12.866Z,100414.13
2023-05-24T18:45:39.772Z,100412.09
2023-05-24T18:48:07.056Z,100415.81
2023-05-24T18:50:34.080Z,100410.00
2023-05-24T18:53:01.509Z,100409.81
2023-05-24T18:55:28.664Z,100421.03
2023-05-24T18:57:55.698Z,100429.75
2023-05-24T19:00:25.473Z,100427.72
2023-05-24T19:02:52.566Z,100427.69
2023-05-24T19:05:20.259Z,100426.09
2023-05-24T19:07:47.262Z,100426.75
2023-05-24T19:10:14.250Z,100430.94
2023-05-24T19:12:41.242Z,100428.09
2023-05-24T19:15:08.739Z,100441.50
2023-05-24T19:17:35.961Z,100441.78
2023-05-24T19:20:03.376Z,100445.91
2023-05-24T19:22:30.469Z,100446.75
2023-05-24T19:24:57.391Z,100455.72
2023-05-24T19:27:24.761Z,100470.94
2023-05-24T19:29:51.826Z,100464.22
2023-05-24T19:32:20.433Z,100473.38
2023-05-24T19:34:47.579Z,100466.19
2023-05-24T19:37:15.957Z,100478.13
2023-05-24T19:39:42.923Z,100476.84
2023-05-24T19:42:12.010Z,100485.84
2023-05-24T19:44:38.955Z,100486.03
2023-05-24T19:47:06.018Z,100491.09
2023-05-24T19:49:32.897Z,100489.69
2023-05-24T19:51:59.784Z,100487.94
2023-05-24T19:54:26.681Z,100489.97
2023-05-24T19:56:55.350Z,100490.56
2023-05-24T19:59:22.280Z,100490.59
2023-05-24T20:01:49.375Z,100495.94
2023-05-24T20:04:16.362Z,100497.53
2023-05-24T20:06:43.280Z,100498.94
2023-05-24T20:09:10.339Z,100500.91
2023-05-24T20:11:37.356Z,100503.59
2023-05-24T20:14:04.632Z,100510.41
2023-05-24T20:16:31.710Z,100505.94
2023-05-24T20:18:58.598Z,100508.81
2023-05-24T20:21:25.535Z,100504.56
2023-05-24T20:23:57.813Z,100515.28
2023-05-24T20:26:25.977Z,100513.22
2023-05-24T20:28:52.914Z,100508.81
2023-05-24T20:31:19.971Z,100505.44
2023-05-24T20:33:47.083Z,100510.09
2023-05-24T20:36:15.287Z,100518.56
2023-05-24T20:38:42.463Z,100510.94
2023-05-24T20:41:09.514Z,100521.50
2023-05-24T20:43:36.526Z,100519.22
2023-05-24T20:46:03.562Z,100524.72
2023-05-24T20:48:30.519Z,100527.69
2023-05-24T20:50:57.629Z,100523.59
2023-05-24T20:53:24.683Z,100529.22
2023-05-24T20:55:51.679Z,100528.91
2023-05-24T20:58:18.645Z,100534.09
2023-05-24T21:00:46.061Z,100532.00
2023-05-24T21:03:13.184Z,100525.81
2023-05-24T21:05:40.548Z,100529.72
2023-05-24T21:08:07.583Z,100535.81
2023-05-24T21:10:34.555Z,100546.88
2023-05-24T21:13:01.479Z,100547.44
2023-05-24T21:15:28.347Z,100550.50
2023-05-24T21:17:55.323Z,100550.03
2023-05-24T21:20:22.516Z,100551.41
2023-05-24T21:22:49.588Z,100551.63
2023-05-24T21:25:16.590Z,100543.78
2023-05-24T21:27:43.531Z,100540.53
2023-05-24T21:30:10.830Z,100552.03
2023-05-24T21:32:37.806Z,100559.94
2023-05-24T21:35:05.107Z,100548.78
2023-05-24T21:37:31.970Z,100547.59
2023-05-24T21:39:58.860Z,100551.25
2023-05-24T21:42:25.743Z,100556.44
2023-05-24T21:44:52.628Z,100552.88
2023-05-24T21:47:19.490Z,100561.69
2023-05-24T21:49:46.362Z,100558.78
2023-05-24T21:52:13.300Z,100558.38
2023-05-24T21:54:40.156Z,100554.59
2023-05-24T21:57:07.470Z,100558.38
2023-05-24T21:59:34.347Z,100554.00
2023-05-24T22:02:01.378Z,100557.69
2023-05-24T22:04:28.342Z,100556.78
2023-05-24T22:06:55.260Z,100557.25
2023-05-24T22:09:22.349Z,100554.12
2023-05-24T22:11:49.242Z,100558.56
2023-05-24T22:14:16.436Z,100557.19
2023-05-24T22:16:43.405Z,100566.22
2023-05-24T22:19:14.479Z,100563.63
2023-05-24T22:21:43.078Z,100558.06
2023-05-24T22:24:10.568Z,100568.22
2023-05-24T22:26:37.644Z,100567.69
2023-05-24T22:29:04.885Z,100565.56
2023-05-24T22:31:33.741Z,100574.06
2023-05-24T22:34:03.720Z,100573.97
2023-05-24T22:36:34.745Z,100576.50
2023-05-24T22:39:02.370Z,100570.22
2023-05-24T22:41:29.568Z,100566.22
2023-05-24T22:43:57.402Z,100554.81
2023-05-24T22:46:24.882Z,100565.97
2023-05-24T22:48:52.693Z,100573.94
2023-05-24T22:51:20.354Z,100567.31
2023-05-24T22:53:48.757Z,100564.12
2023-05-24T22:56:18.088Z,100572.75
2023-05-24T22:58:44.956Z,100568.59
2023-05-24T23:01:12.037Z,100562.25
2023-05-24T23:03:38.966Z,100554.06
2023-05-24T23:06:06.130Z,100564.78
2023-05-24T23:08:33.733Z,100560.22
2023-05-24T23:11:01.019Z,100573.13
2023-05-24T23:13:28.273Z,100569.09
2023-05-24T23:15:58.720Z,100569.75
2023-05-24T23:18:26.654Z,100571.38
2023-05-24T23:20:56.795Z,100575.38
2023-05-24T23:23:25.057Z,100570.31
2023-05-24T23:25:52.015Z,100567.47
2023-05-24T23:28:19.315Z,100569.94
2023-05-24T23:30:46.302Z,100572.25
2023-05-24T23:33:13.172Z,100576.41
2023-05-24T23:35:40.158Z,100575.47
2023-05-24T23:38:07.138Z,100576.69
2023-05-24T23:40:34.691Z,100578.22
2023-05-24T23:43:01.549Z,100563.59
2023-05-24T23:45:28.553Z,100570.03
2023-05-24T23:47:55.654Z,100570.16
2023-05-24T23:50:22.828Z,100574.28
2023-05-24T23:52:50.171Z,100570.34
2023-05-24T23:55:18.452Z,100579.41
2023-05-24T23:57:46.261Z,100573.06
